Time;durP1;ratioP1;P1;durP2;ratioP2;P2;SDS_P1;SDS_P2;PMS_P1;PMS_P2;Temp;Humidity;BMP_temperature;BMP_pressure;BME280_temperature;BME280_humidity;BME280_pressure;Samples;Min_cycle;Max_cycle;Signal;HPM_P1;HPM_P2
2023/10/15 00:00:37;;;;;;;0.90;0.70;;;;;;;23.80;44.91;100040.44;21173872;28;20048;-64
2023/10/15 00:10:39;;;;;;;0.52;0.50;;;;;;;23.74;44.79;100038.94;21173582;28;20031;-63
2023/10/15 00:20:40;;;;;;;0.60;0.60;;;;;;;23.80;45.01;100046.03;21173070;28;20406;-63
2023/10/15 00:30:44;;;;;;;1.92;1.05;;;;;;;23.78;45.00;100034.34;21171950;28;20081;-64
2023/10/15 00:40:51;;;;;;;1.05;0.80;;;;;;;23.74;44.79;100030.56;21171175;28;20051;-64
2023/10/15 00:50:55;;;;;;;0.68;0.68;;;;;;;23.75;44.92;100012.66;21168758;27;20047;-63
2023/10/15 01:01:00;;;;;;;0.82;0.75;;;;;;;23.75;44.81;99997.84;21169585;28;20040;-63
2023/10/15 01:11:15;;;;;;;1.45;0.68;;;;;;;23.71;44.63;100000.47;21168464;28;20036;-63
2023/10/15 01:21:16;;;;;;;1.00;0.70;;;;;;;23.71;44.86;100000.47;21167501;28;20040;-62
2023/10/15 01:31:18;;;;;;;1.05;0.63;;;;;;;23.54;45.17;99953.69;21166876;28;20043;-63
2023/10/15 01:41:19;;;;;;;0.63;0.55;;;;;;;23.69;45.09;99983.22;21165986;28;20092;-62
2023/10/15 01:51:22;;;;;;;1.15;0.68;;;;;;;23.67;44.92;99979.09;21165902;28;20027;-63
2023/10/15 02:01:34;;;;;;;0.60;0.50;;;;;;;23.67;45.08;99985.50;21162789;28;20467;-63
2023/10/15 02:11:42;;;;;;;0.57;0.50;;;;;;;23.66;45.18;99961.50;21161984;28;20040;-63
2023/10/15 02:21:49;;;;;;;1.05;0.50;;;;;;;23.65;45.05;99951.50;21162841;28;20077;-63
2023/10/15 02:31:51;;;;;;;0.98;0.50;;;;;;;23.65;45.17;99954.28;21162094;28;20490;-63
2023/10/15 02:41:52;;;;;;;0.63;0.60;;;;;;;23.62;45.05;99952.09;21161134;28;20039;-63
2023/10/15 02:51:54;;;;;;;0.40;0.40;;;;;;;23.62;45.20;99954.06;21160796;28;20062;-63
2023/10/15 03:01:56;;;;;;;0.95;0.85;;;;;;;23.42;45.28;99894.06;21160716;28;20043;-63
2023/10/15 03:11:58;;;;;;;0.40;0.40;;;;;;;23.57;45.11;99921.53;21162735;28;20109;-62
2023/10/15 03:22:00;;;;;;;1.02;0.50;;;;;;;23.58;45.15;99893.28;21177133;28;20044;-64
2023/10/15 03:32:12;;;;;;;0.50;0.50;;;;;;;23.54;45.30;99866.31;21176797;28;20075;-63
2023/10/15 03:52:20;;;;;;;0.75;0.50;;;;;;;23.53;45.04;99914.94;21175809;28;20463;-64
2023/10/15 04:03:06;;;;;;;0.40;0.38;;;;;;;23.52;45.12;99910.50;21174234;28;20035;-63
2023/10/15 04:13:01;;;;;;;0.40;0.40;;;;;;;23.51;45.04;99903.28;21173193;28;20104;-62
2023/10/15 04:23:03;;;;;;;0.50;0.50;;;;;;;23.45;45.18;99871.06;21172060;28;20136;-63
2023/10/15 04:33:13;;;;;;;0.35;0.30;;;;;;;23.51;45.19;99858.59;21171842;27;20099;-63
2023/10/15 04:43:14;;;;;;;0.70;0.60;;;;;;;23.49;45.30;99852.50;21171419;28;20043;-62
2023/10/15 04:53:23;;;;;;;0.55;0.45;;;;;;;23.48;45.19;99853.66;21170702;28;20105;-63
2023/10/15 05:03:27;;;;;;;0.38;0.38;;;;;;;23.43;45.29;99823.09;21169816;28;20046;-63
2023/10/15 05:13:31;;;;;;;0.50;0.40;;;;;;;23.45;45.21;99815.22;21169082;28;20044;-62
2023/10/15 05:23:33;;;;;;;0.30;0.30;;;;;;;23.40;45.17;99790.25;21165694;28;20051;-63
2023/10/15 05:33:34;;;;;;;1.02;0.40;;;;;;;23.42;45.14;99779.59;21166459;28;20516;-62
2023/10/15 05:43:36;;;;;;;0.60;0.40;;;;;;;23.39;45.26;99771.84;21166230;28;20039;-63
2023/10/15 05:53:37;;;;;;;0.98;0.60;;;;;;;23.40;45.29;99784.66;21165827;28;20046;-63
2023/10/15 06:03:40;;;;;;;0.40;0.30;;;;;;;23.37;45.24;99793.69;21163528;28;20039;-62
2023/10/15 06:13:41;;;;;;;0.40;0.40;;;;;;;23.27;45.20;99764.91;21163059;28;20044;-62
2023/10/15 06:23:43;;;;;;;0.45;0.43;;;;;;;23.37;45.21;99821.59;21163251;28;20471;-63
2023/10/15 06:33:44;;;;;;;0.30;0.30;;;;;;;23.34;45.31;99826.69;21162441;28;20039;-63
2023/10/15 06:43:47;;;;;;;0.73;0.40;;;;;;;23.28;45.32;99816.00;21162294;28;20426;-64
2023/10/15 06:53:48;;;;;;;0.50;0.50;;;;;;;23.29;45.30;99818.47;21160446;28;20085;-62
2023/10/15 07:03:49;;;;;;;0.30;0.30;;;;;;;23.09;45.29;99779.97;21160881;28;20089;-62
2023/10/15 07:13:51;;;;;;;0.40;0.35;;;;;;;23.24;45.50;99809.44;21159784;28;20059;-62
2023/10/15 07:23:53;;;;;;;0.50;0.50;;;;;;;23.28;45.15;99811.25;21159331;28;20394;-63
2023/10/15 07:34:00;;;;;;;0.38;0.30;;;;;;;23.26;45.31;99819.09;21159038;28;20051;-63
2023/10/15 07:44:07;;;;;;;5.97;0.70;;;;;;;23.20;45.18;99792.50;21158391;28;20040;-63
2023/10/15 07:54:08;;;;;;;0.50;0.47;;;;;;;23.25;45.31;99823.06;21159179;28;20390;-63
2023/10/15 08:04:09;;;;;;;0.45;0.40;;;;;;;23.22;45.36;99790.19;21170416;28;20411;-63
2023/10/15 08:14:11;;;;;;;0.75;0.50;;;;;;;23.23;45.23;99796.59;21173063;28;20042;-62
2023/10/15 08:24:14;;;;;;;0.38;0.38;;;;;;;23.21;45.46;99805.31;21172603;28;20073;-63
2023/10/15 08:34:19;;;;;;;0.60;0.50;;;;;;;23.19;45.25;99807.59;21171865;28;20040;-63
2023/10/15 08:44:21;;;;;;;0.65;0.40;;;;;;;23.17;45.53;99832.22;21170725;28;20039;-62
2023/10/15 08:54:25;;;;;;;0.40;0.40;;;;;;;23.07;45.30;99810.19;21170070;28;20092;-62
2023/10/15 09:04:27;;;;;;;1.35;0.70;;;;;;;23.13;45.56;99836.78;21168639;28;20050;-62
2023/10/15 09:14:43;;;;;;;1.27;0.40;;;;;;;23.11;45.63;99830.72;21167458;28;20144;-63
2023/10/15 09:24:45;;;;;;;0.70;0.60;;;;;;;23.13;45.50;99853.53;21167793;28;20047;-62
2023/10/15 09:34:48;;;;;;;0.40;0.38;;;;;;;23.11;45.20;99843.84;21167068;27;20031;-62
2023/10/15 09:44:52;;;;;;;1.67;0.50;;;;;;;23.08;45.53;99836.94;21166190;28;20044;-62
2023/10/15 09:54:55;;;;;;;0.30;0.30;;;;;;;23.08;45.28;99853.69;21164889;28;20040;-61
2023/10/15 10:05:16;;;;;;;0.55;0.50;;;;;;;23.06;45.50;99875.50;21164637;28;20065;-64
2023/10/15 10:15:52;;;;;;;0.98;0.60;;;;;;;22.77;45.43;99839.69;21163561;28;20073;-63
2023/10/15 10:25:58;;;;;;;0.57;0.47;;;;;;;23.05;45.44;99885.03;21162936;28;20051;-62
2023/10/15 10:36:11;;;;;;;0.85;0.50;;;;;;;23.01;45.49;99895.19;21161434;28;20044;-64
2023/10/15 10:46:22;;;;;;;0.40;0.40;;;;;;;23.01;45.52;99901.59;21161468;28;20089;-63
2023/10/15 10:56:44;;;;;;;0.77;0.50;;;;;;;23.00;45.35;99901.88;21160978;28;20044;-63
2023/10/15 11:06:45;;;;;;;0.50;0.50;;;;;;;23.00;45.60;99910.25;21160505;28;20043;-63
2023/10/15 11:16:50;;;;;;;0.60;0.50;;;;;;;23.00;45.34;99921.41;21158137;28;20051;-63
2023/10/15 11:26:54;;;;;;;0.60;0.50;;;;;;;22.96;45.52;99914.84;21159711;28;20479;-62
2023/10/15 11:36:56;;;;;;;0.65;0.65;;;;;;;22.96;45.50;99931.59;21169017;28;20043;-63
2023/10/15 11:47:08;;;;;;;0.55;0.40;;;;;;;22.92;45.47;99942.56;21175480;28;20567;-63
2023/10/15 11:57:21;;;;;;;0.68;0.43;;;;;;;22.95;45.53;99964.22;21174485;27;20546;-63
2023/10/15 12:07:28;;;;;;;0.40;0.40;;;;;;;22.91;45.58;99973.53;21174698;28;20524;-62
2023/10/15 12:17:29;;;;;;;0.80;0.70;;;;;;;22.91;45.34;99984.69;21173239;28;20100;-62
2023/10/15 12:27:30;;;;;;;1.80;0.68;;;;;;;22.88;45.32;99985.31;21172884;28;20038;-63
2023/10/15 12:37:32;;;;;;;0.50;0.50;;;;;;;22.87;45.38;100004.03;21171773;28;20032;-63
2023/10/15 12:47:33;;;;;;;1.17;0.60;;;;;;;22.88;45.57;100002.88;21169618;28;20059;-63
2023/10/15 12:57:36;;;;;;;0.77;0.60;;;;;;;22.86;45.28;100004.31;21170763;28;20382;-64
2023/10/15 13:07:43;;;;;;;0.73;0.60;;;;;;;22.88;45.36;100027.16;21169204;28;20031;-62
2023/10/15 13:17:48;;;;;;;0.60;0.60;;;;;;;22.83;45.49;100009.41;21168415;28;20043;-61
2023/10/15 13:27:49;;;;;;;0.70;0.70;;;;;;;22.68;45.44;99987.47;21167471;28;20081;-62
2023/10/15 13:37:53;;;;;;;0.50;0.50;;;;;;;22.87;45.34;100022.75;21166695;28;20035;-62
2023/10/15 13:47:54;;;;;;;1.05;0.70;;;;;;;22.84;45.23;100038.94;21165751;28;20032;-62
2023/10/15 13:57:58;;;;;;;0.60;0.60;;;;;;;22.84;45.44;100046.50;21164746;28;20040;-63
2023/10/15 14:07:59;;;;;;;0.60;0.60;;;;;;;22.86;45.49;100043.38;21164519;28;20458;-63
2023/10/15 14:18:01;;;;;;;1.95;0.70;;;;;;;22.87;45.64;100033.91;21164314;28;20035;-63
2023/10/15 14:28:03;;;;;;;1.05;0.60;;;;;;;22.89;45.45;100034.41;21163419;28;20032;-64
2023/10/15 14:38:05;;;;;;;0.65;0.50;;;;;;;22.86;45.27;100016.31;21163386;28;20039;-63
2023/10/15 14:48:06;;;;;;;0.70;0.70;;;;;;;22.91;45.45;100030.19;21161864;28;20552;-63
2023/10/15 14:58:08;;;;;;;0.70;0.60;;;;;;;22.90;45.24;100038.84;21160947;28;20039;-62
2023/10/15 15:08:10;;;;;;;0.60;0.60;;;;;;;22.92;45.32;100033.81;21159684;28;20038;-62
2023/10/15 15:18:11;;;;;;;0.70;0.70;;;;;;;22.90;45.32;100013.75;21159494;28;20073;-63
2023/10/15 15:28:12;;;;;;;0.60;0.47;;;;;;;22.88;45.39;100018.81;21159785;28;20036;-63
2023/10/15 15:38:15;;;;;;;1.02;0.60;;;;;;;22.93;45.23;100021.50;21158604;28;20044;-62
2023/10/15 15:48:16;;;;;;;0.70;0.70;;;;;;;22.96;45.03;100049.59;21159273;28;20035;-63
2023/10/15 15:58:19;;;;;;;0.70;0.70;;;;;;;22.92;45.08;100031.00;21157844;28;20470;-63
2023/10/15 16:08:20;;;;;;;0.70;0.70;;;;;;;23.00;44.92;100050.63;21158346;28;20047;-62
2023/10/15 16:18:22;;;;;;;0.70;0.70;;;;;;;23.01;45.18;100040.28;21159389;28;20039;-63
2023/10/15 16:28:24;;;;;;;0.75;0.75;;;;;;;22.74;45.19;100005.72;21172897;28;20027;-62
2023/10/15 16:38:28;;;;;;;0.65;0.63;;;;;;;23.00;45.04;100045.03;21171648;28;20043;-62
2023/10/15 16:48:32;;;;;;;0.47;0.47;;;;;;;22.91;44.81;100018.19;21171043;28;20085;-62
2023/10/15 16:58:34;;;;;;;0.68;0.60;;;;;;;23.03;45.00;100037.97;21170300;28;20035;-62
2023/10/15 17:08:36;;;;;;;0.60;0.60;;;;;;;22.93;45.12;100027.91;21169595;28;20047;-62
2023/10/15 17:18:38;;;;;;;0.68;0.60;;;;;;;23.00;44.92;100035.81;21168761;28;20104;-63
2023/10/15 17:28:40;;;;;;;0.60;0.60;;;;;;;22.92;45.18;100036.59;21167523;28;20044;-63
2023/10/15 17:38:41;;;;;;;0.50;0.50;;;;;;;22.94;45.00;100009.19;21165738;28;20044;-63
2023/10/15 17:48:43;;;;;;;0.43;0.43;;;;;;;22.96;44.97;100016.13;21164539;28;20471;-61
2023/10/15 17:58:44;;;;;;;0.85;0.82;;;;;;;22.95;45.13;100022.00;21164661;27;20040;-62
2023/10/15 18:08:46;;;;;;;0.50;0.50;;;;;;;22.93;45.18;100027.91;21164470;28;20038;-62
2023/10/15 18:18:48;;;;;;;0.50;0.50;;;;;;;22.99;45.20;100000.69;21163521;28;20134;-62
2023/10/15 18:28:52;;;;;;;0.47;0.47;;;;;;;23.00;45.19;99993.97;21162520;28;20441;-62
2023/10/15 18:38:55;;;;;;;0.43;0.40;;;;;;;22.95;45.00;99996.88;21162641;28;20031;-62
2023/10/15 18:48:57;;;;;;;0.50;0.50;;;;;;;22.95;45.09;100006.06;21161720;28;20482;-64
2023/10/15 18:59:00;;;;;;;0.90;0.50;;;;;;;22.95;45.09;100005.25;21160883;28;20073;-62
2023/10/15 19:09:02;;;;;;;0.40;0.40;;;;;;;22.96;45.11;100004.13;21160057;28;20040;-62
2023/10/15 19:19:03;;;;;;;1.27;0.60;;;;;;;22.95;45.13;99996.88;21160391;28;20678;-62
2023/10/15 19:29:14;;;;;;;0.60;0.60;;;;;;;22.92;45.22;100005.91;21159167;28;20036;-62
2023/10/15 19:39:18;;;;;;;0.60;0.60;;;;;;;22.95;45.12;99994.91;21159019;28;20047;-63
2023/10/15 19:49:22;;;;;;;0.43;0.43;;;;;;;22.94;45.16;100012.81;21159557;28;20036;-64
2023/10/15 19:59:24;;;;;;;0.50;0.50;;;;;;;22.95;45.00;100019.19;21170773;28;20105;-62
2023/10/15 20:09:25;;;;;;;0.45;0.45;;;;;;;22.94;45.24;100014.75;21174513;28;20467;-63
2023/10/15 20:19:27;;;;;;;0.30;0.30;;;;;;;22.96;45.15;100021.69;21173994;28;20391;-62
2023/10/15 20:29:28;;;;;;;0.40;0.40;;;;;;;22.90;45.27;100011.78;21172774;28;20036;-64
2023/10/15 20:39:30;;;;;;;0.45;0.45;;;;;;;22.92;45.21;100031.84;21171502;28;20044;-63
2023/10/15 20:49:32;;;;;;;0.43;0.43;;;;;;;22.89;45.35;100048.34;21170993;28;20032;-62
2023/10/15 20:59:33;;;;;;;0.57;0.43;;;;;;;22.93;45.43;100044.63;21169463;28;20047;-62
2023/10/15 21:09:35;;;;;;;0.35;0.35;;;;;;;22.92;45.25;100053.34;21167982;27;20035;-63
2023/10/15 21:19:37;;;;;;;0.55;0.47;;;;;;;22.87;45.11;100057.03;21168277;28;20047;-62
2023/10/15 21:29:39;;;;;;;0.47;0.40;;;;;;;22.91;45.40;100068.41;21167424;28;20039;-62
2023/10/15 21:39:43;;;;;;;0.40;0.40;;;;;;;22.90;45.07;100063.97;21166705;28;20555;-63
2023/10/15 21:49:47;;;;;;;0.50;0.45;;;;;;;22.90;45.02;100089.06;21166077;28;20096;-62
2023/10/15 21:59:48;;;;;;;0.45;0.45;;;;;;;22.84;44.90;100103.09;21164732;28;20092;-63
2023/10/15 22:09:53;;;;;;;0.40;0.40;;;;;;;22.78;45.07;100114.72;21164073;28;20036;-61
2023/10/15 22:19:54;;;;;;;0.93;0.50;;;;;;;22.58;45.21;100083.31;21163270;28;20035;-61
2023/10/15 22:30:04;;;;;;;0.45;0.40;;;;;;;22.80;45.39;100124.41;21163006;28;20390;-63
2023/10/15 22:40:07;;;;;;;0.32;0.32;;;;;;;22.81;45.60;100142.78;21162062;28;20402;-63
2023/10/15 22:50:09;;;;;;;0.65;0.65;;;;;;;22.80;45.41;100169.03;21161852;28;20043;-62
2023/10/15 23:00:11;;;;;;;0.60;0.57;;;;;;;22.81;45.42;100201.34;21162370;28;20040;-62
2023/10/15 23:10:12;;;;;;;0.35;0.30;;;;;;;22.82;45.33;100211.41;21160883;28;20035;-62
2023/10/15 23:30:27;;;;;;;0.60;0.60;;;;;;;22.82;45.53;100228.13;21165796;28;20040;-64
2023/10/15 23:40:29;;;;;;;0.75;0.73;;;;;;;22.80;45.55;100235.97;21177381;28;20077;-62
2023/10/15 23:50:31;;;;;;;0.40;0.40;;;;;;;22.82;45.47;100253.25;21175780;28;20474;-61
